TimeEST,TemperatureF,Dew PointF,Humidity,Sea Level PressureIn,VisibilityMPH,Wind Direction,Wind SpeedMPH,Gust SpeedMPH,PrecipitationIn,Events,Conditions,WindDirDegrees,DateUTC
12:52 AM,35.1,34.0,96,30.13,7.0,Calm,Calm,-,N/A,,Clear,0,2012-11-23 05:52:00
1:52 AM,35.1,33.1,92,30.12,10.0,Calm,Calm,-,N/A,,Clear,0,2012-11-23 06:52:00
2:52 AM,35.1,33.1,92,30.10,10.0,Calm,Calm,-,N/A,,Clear,0,2012-11-23 07:52:00
3:52 AM,34.0,33.1,96,30.09,7.0,Calm,Calm,-,N/A,,Clear,0,2012-11-23 08:52:00
4:52 AM,35.1,34.0,96,30.08,7.0,NNW,3.5,-,N/A,,Clear,340,2012-11-23 09:52:00
5:52 AM,36.0,34.0,93,30.07,7.0,NNW,3.5,-,N/A,,Clear,330,2012-11-23 10:52:00
6:52 AM,35.1,33.1,92,30.07,6.0,Calm,Calm,-,N/A,,Clear,0,2012-11-23 11:52:00
7:10 AM,37.4,35.6,93,30.06,9.0,Calm,Calm,-,N/A,,Mostly Cloudy,0,2012-11-23 12:10:00
7:52 AM,44.1,43.0,96,30.07,10.0,Calm,Calm,-,N/A,,Mostly Cloudy,0,2012-11-23 12:52:00
8:04 AM,46.4,44.6,93,30.06,10.0,Calm,Calm,-,N/A,,Partly Cloudy,0,2012-11-23 13:04:00
8:42 AM,48.2,46.4,93,30.05,10.0,Calm,Calm,-,N/A,,Mostly Cloudy,0,2012-11-23 13:42:00
8:52 AM,50.0,46.9,89,30.05,10.0,Calm,Calm,-,N/A,,Mostly Cloudy,0,2012-11-23 13:52:00
9:52 AM,52.0,45.0,77,30.03,10.0,SSW,3.5,-,N/A,,Mostly Cloudy,200,2012-11-23 14:52:00
10:10 AM,51.8,44.6,76,30.01,10.0,South,5.8,-,N/A,,Partly Cloudy,170,2012-11-23 15:10:00
10:52 AM,51.1,44.1,77,29.99,10.0,SSW,4.6,-,N/A,,Clear,210,2012-11-23 15:52:00
11:52 AM,51.1,44.1,77,29.96,10.0,Variable,5.8,-,N/A,,Partly Cloudy,0,2012-11-23 16:52:00
12:52 PM,51.1,43.0,74,29.93,10.0,Variable,4.6,-,N/A,,Clear,0,2012-11-23 17:52:00
1:41 PM,48.2,42.8,82,29.90,10.0,Variable,5.8,-,N/A,,Mostly Cloudy,0,2012-11-23 18:41:00
1:48 PM,48.2,44.6,87,29.89,10.0,SW,5.8,-,N/A,,Mostly Cloudy,220,2012-11-23 18:48:00
1:52 PM,48.0,43.0,83,29.90,10.0,SSW,6.9,-,N/A,,Overcast,200,2012-11-23 18:52:00
2:52 PM,48.0,43.0,83,29.88,10.0,South,4.6,-,N/A,,Overcast,190,2012-11-23 19:52:00
3:35 PM,46.4,42.8,87,29.86,10.0,SSW,4.6,-,N/A,,Overcast,210,2012-11-23 20:35:00
3:52 PM,46.9,43.0,86,29.87,10.0,SSW,5.8,-,N/A,,Overcast,210,2012-11-23 20:52:00
4:13 PM,46.4,42.8,87,29.85,10.0,SSW,4.6,-,N/A,,Scattered Clouds,200,2012-11-23 21:13:00
4:52 PM,46.0,43.0,89,29.85,10.0,SSW,5.8,-,N/A,,Clear,200,2012-11-23 21:52:00
5:45 PM,46.4,42.8,87,29.83,10.0,SSW,5.8,-,N/A,,Scattered Clouds,210,2012-11-23 22:45:00
5:52 PM,46.9,44.1,90,29.84,10.0,SSW,6.9,-,N/A,,Mostly Cloudy,210,2012-11-23 22:52:00
6:39 PM,46.4,42.8,87,29.82,10.0,SW,6.9,-,N/A,,Scattered Clouds,220,2012-11-23 23:39:00
6:52 PM,46.0,43.0,89,29.83,10.0,SW,5.8,-,N/A,,Partly Cloudy,220,2012-11-23 23:52:00
7:52 PM,46.0,43.0,89,29.80,10.0,SSW,5.8,-,N/A,,Clear,200,2012-11-24 00:52:00
8:52 PM,46.0,44.1,93,29.77,10.0,SSW,5.8,-,N/A,,Clear,200,2012-11-24 01:52:00
9:52 PM,46.0,44.1,93,29.75,10.0,SSW,4.6,-,N/A,,Clear,210,2012-11-24 02:52:00
10:25 PM,46.4,44.6,93,29.74,10.0,SSW,6.9,-,N/A,,Mostly Cloudy,200,2012-11-24 03:25:00
10:35 PM,46.4,44.6,93,29.73,10.0,South,6.9,-,N/A,,Mostly Cloudy,180,2012-11-24 03:35:00
10:44 PM,46.4,44.6,93,29.72,10.0,South,4.6,-,N/A,,Scattered Clouds,190,2012-11-24 03:44:00
10:52 PM,46.0,45.0,96,29.72,10.0,South,4.6,-,N/A,,Partly Cloudy,190,2012-11-24 03:52:00
11:52 PM,46.9,46.0,97,29.69,10.0,Variable,5.8,-,N/A,,Partly Cloudy,0,2012-11-24 04:52:00